Terminal Aerodrome Forecast
Issued by NWS Huntsville, AL

Home | Current Version | Previous Version | Text Only | Print | Product List | Glossary On
Versions: 1 2 3 4 5 6 7 8 9 10 11 12 13 14 15 16 17 18 19 20 21 22 23 24 25 26
000
FTUS44 KHUN 051131
TAFHSV
TAF
KHSV 051131Z 0512/0612 04006KT P6SM OVC008
     FM051500 07005KT P6SM VCSH OVC015
     FM052100 09010G15KT 6SM SHRA OVC025
     FM060100 12010G15KT 5SM SHRA OVC015
     FM060400 14011KT 5SM -TSRA OVC009CB=

USA.gov is the U.S. government's official web portal to all federal, state and local government web resources and services.